createdAt,value
2023-05-01T00:02:46.341Z,72.75
2023-05-01T00:07:49.264Z,73.36
2023-05-01T00:12:51.415Z,71.89
2023-05-01T00:17:54.638Z,66.65
2023-05-01T00:22:57.971Z,70.30
2023-05-01T00:28:00.200Z,71.83
2023-05-01T00:33:02.514Z,73.69
2023-05-01T00:38:04.846Z,78.43
2023-05-01T00:43:07.057Z,76.87
2023-05-01T00:48:11.006Z,73.39
2023-05-01T00:53:13.484Z,71.74
2023-05-01T00:58:18.912Z,74.28
2023-05-01T01:03:21.749Z,71.10
2023-05-01T01:08:32.560Z,73.53
2023-05-01T01:13:54.933Z,78.16
2023-05-01T01:19:38.705Z,79.70
2023-05-01T01:24:59.336Z,70.96
2023-05-01T01:30:32.390Z,72.90
2023-05-01T01:35:37.011Z,76.78
2023-05-01T01:40:53.238Z,76.03
2023-05-01T01:46:03.829Z,74.28
2023-05-01T01:51:13.852Z,78.34
2023-05-01T01:56:20.796Z,71.44
2023-05-01T02:01:25.079Z,70.59
2023-05-01T02:06:29.932Z,75.82
2023-05-01T02:11:33.657Z,76.51
2023-05-01T02:16:37.534Z,69.37
2023-05-01T02:21:41.346Z,71.67
2023-05-01T02:26:49.772Z,71.60
2023-05-01T02:31:52.210Z,76.37
2023-05-01T02:36:54.574Z,75.17
2023-05-01T02:42:01.749Z,77.75
2023-05-01T02:47:07.299Z,75.67
2023-05-01T02:52:11.673Z,72.75
2023-05-01T02:57:14.308Z,76.43
2023-05-01T03:02:16.429Z,75.94
2023-05-01T03:07:18.654Z,74.74
2023-05-01T03:12:21.864Z,77.54
2023-05-01T03:17:24.033Z,71.26
2023-05-01T03:22:33.211Z,73.95
2023-05-01T03:27:35.574Z,78.59
2023-05-01T03:32:37.800Z,79.03
2023-05-01T03:37:42.208Z,76.53
2023-05-01T03:42:44.675Z,74.70
2023-05-01T03:47:54.989Z,74.47
2023-05-01T03:52:57.767Z,78.18
2023-05-01T03:57:59.969Z,82.24
2023-05-01T04:08:05.328Z,80.61
2023-05-01T04:13:07.654Z,76.58
2023-05-01T04:18:10.957Z,76.00
2023-05-01T04:23:13.109Z,73.18
2023-05-01T04:28:15.279Z,75.54
2023-05-01T04:33:17.568Z,75.73
2023-05-01T04:38:19.975Z,76.46
2023-05-01T04:43:24.153Z,75.53
2023-05-01T04:48:26.530Z,75.93
2023-05-01T04:53:29.378Z,74.55
2023-05-01T04:58:32.433Z,76.21
2023-05-01T05:03:41.285Z,83.04
2023-05-01T05:08:45.639Z,72.90
2023-05-01T05:13:48.157Z,76.01
2023-05-01T05:18:50.716Z,72.78
2023-05-01T05:23:54.128Z,72.44
2023-05-01T05:28:56.517Z,71.29
2023-05-01T05:33:58.926Z,75.14
2023-05-01T05:39:01.199Z,74.70
2023-05-01T05:44:03.766Z,76.67
2023-05-01T05:49:06.896Z,76.36
2023-05-01T05:54:09.166Z,75.72
2023-05-01T05:59:11.991Z,79.33
2023-05-01T06:04:17.016Z,75.23
2023-05-01T06:09:20.408Z,74.91
2023-05-01T06:14:22.878Z,78.02
2023-05-01T06:19:25.126Z,78.20
2023-05-01T06:24:36.274Z,81.21
2023-05-01T06:29:38.689Z,77.47
2023-05-01T06:34:40.996Z,77.77
2023-05-01T06:39:43.258Z,76.36
2023-05-01T06:44:45.598Z,80.42
2023-05-01T06:49:47.834Z,74.16
2023-05-01T06:54:49.992Z,72.51
2023-05-01T06:59:52.188Z,73.40
2023-05-01T07:04:54.532Z,77.27
2023-05-01T07:09:57.106Z,80.11
2023-05-01T07:15:00.026Z,78.12
2023-05-01T07:20:02.693Z,77.44
2023-05-01T07:25:05.686Z,76.66
2023-05-01T07:30:09.966Z,77.16
2023-05-01T07:35:12.498Z,74.16
2023-05-01T07:40:14.756Z,74.19
2023-05-01T07:45:17.078Z,71.55
2023-05-01T07:50:20.887Z,70.32
2023-05-01T07:55:23.986Z,72.20
2023-05-01T08:00:26.057Z,71.93
2023-05-01T08:05:28.194Z,70.70
2023-05-01T08:10:30.567Z,74.00
2023-05-01T08:15:32.723Z,73.73
2023-05-01T08:20:36.920Z,73.70
2023-05-01T08:25:39.055Z,76.08
2023-05-01T08:30:41.252Z,75.72
2023-05-01T08:35:43.659Z,75.67
2023-05-01T08:40:53.701Z,73.42
2023-05-01T08:45:59.393Z,71.14
2023-05-01T08:51:04.326Z,69.89
2023-05-01T08:56:08.519Z,68.79
2023-05-01T09:01:16.362Z,68.33
2023-05-01T09:06:20.321Z,66.63
2023-05-01T09:11:24.808Z,64.39
2023-05-01T09:16:27.374Z,66.91
2023-05-01T09:21:32.159Z,63.29
2023-05-01T09:26:37.086Z,65.26
2023-05-01T09:31:39.247Z,62.49
2023-05-01T09:36:47.740Z,69.44
2023-05-01T09:41:52.960Z,62.86
2023-05-01T09:46:55.586Z,59.82
2023-05-01T09:52:12.077Z,55.50
2023-05-01T09:57:14.305Z,57.27
2023-05-01T10:02:30.945Z,61.38
2023-05-01T10:07:34.435Z,63.01
2023-05-01T10:12:37.627Z,60.25
2023-05-01T10:17:41.892Z,65.28
2023-05-01T10:22:44.657Z,62.21
2023-05-01T10:27:48.685Z,61.08
2023-05-01T10:32:52.970Z,63.15
2023-05-01T10:38:07.259Z,59.16
2023-05-01T10:43:31.080Z,56.86
2023-05-01T10:48:42.633Z,62.25
2023-05-01T10:53:46.754Z,57.12
2023-05-01T10:59:06.604Z,60.01
2023-05-01T11:04:23.001Z,57.54
2023-05-01T11:09:49.566Z,58.27
2023-05-01T11:14:55.943Z,61.95
2023-05-01T11:19:58.800Z,58.62
2023-05-01T11:25:04.825Z,62.65
2023-05-01T11:30:08.209Z,59.38
2023-05-01T11:35:30.086Z,59.03
2023-05-01T11:40:35.248Z,63.25
2023-05-01T11:45:38.128Z,62.40
2023-05-01T11:50:40.270Z,67.67
2023-05-01T11:55:42.483Z,63.69
2023-05-01T12:00:44.759Z,60.93
2023-05-01T12:05:49.240Z,67.68
2023-05-01T12:10:59.057Z,65.04
2023-05-01T12:16:01.936Z,62.80
2023-05-01T12:21:04.116Z,60.94
2023-05-01T12:26:25.891Z,63.06
2023-05-01T12:31:29.764Z,60.17
2023-05-01T12:36:35.178Z,55.37
2023-05-01T12:41:46.910Z,57.29
2023-05-01T12:47:04.574Z,63.08
2023-05-01T12:52:09.565Z,61.87
2023-05-01T12:57:15.074Z,63.13
2023-05-01T13:02:18.652Z,62.80
2023-05-01T13:07:21.219Z,62.95
2023-05-01T13:12:25.359Z,64.91
2023-05-01T13:17:31.435Z,65.27
2023-05-01T13:22:36.157Z,65.43
2023-05-01T13:27:38.367Z,66.03
2023-05-01T13:32:42.528Z,67.25
2023-05-01T13:37:44.684Z,66.66
2023-05-01T13:42:48.488Z,66.17
2023-05-01T13:47:52.174Z,63.09
2023-05-01T13:52:54.360Z,66.41
2023-05-01T13:57:56.683Z,68.49
2023-05-01T14:02:59.989Z,68.31
2023-05-01T14:08:02.505Z,63.62
2023-05-01T14:13:05.298Z,66.54
2023-05-01T14:18:08.119Z,68.74
2023-05-01T14:23:10.926Z,63.71
2023-05-01T14:28:13.376Z,52.66
2023-05-01T14:33:16.354Z,51.82
2023-05-01T14:38:21.545Z,51.71
2023-05-01T14:43:23.679Z,54.27
2023-05-01T14:48:34.165Z,55.24
2023-05-01T14:53:36.470Z,57.17
2023-05-01T14:58:39.230Z,65.83
2023-05-01T15:03:43.949Z,61.27
2023-05-01T15:08:47.004Z,59.50
2023-05-01T15:13:50.627Z,61.83
2023-05-01T15:18:52.845Z,65.68
2023-05-01T15:23:55.255Z,76.50
2023-05-01T15:28:57.422Z,96.71
2023-05-01T15:33:59.583Z,100.00
2023-05-01T15:39:01.733Z,100.00
2023-05-01T15:44:06.039Z,100.00
2023-05-01T15:49:10.229Z,100.00
2023-05-01T15:54:12.400Z,100.00
2023-05-01T15:59:14.644Z,100.00
2023-05-01T16:04:16.846Z,99.40
2023-05-01T16:09:19.359Z,95.56
2023-05-01T16:14:21.808Z,99.63
2023-05-01T16:19:24.204Z,100.00
2023-05-01T16:24:26.631Z,100.00
2023-05-01T16:29:29.215Z,100.00
2023-05-01T16:34:31.504Z,100.00
2023-05-01T16:39:38.627Z,100.00
2023-05-01T16:44:41.674Z,100.00
2023-05-01T16:49:44.503Z,100.00
2023-05-01T16:54:46.673Z,100.00
2023-05-01T16:59:49.526Z,90.07
2023-05-01T17:04:52.017Z,92.19
2023-05-01T17:09:55.047Z,93.62
2023-05-01T17:14:57.340Z,100.00
2023-05-01T17:19:59.902Z,100.00
2023-05-01T17:25:04.043Z,100.00
2023-05-01T17:30:07.445Z,100.00
2023-05-01T17:35:10.043Z,100.00
2023-05-01T17:40:12.619Z,100.00
2023-05-01T17:45:14.926Z,100.00
2023-05-01T17:50:17.183Z,100.00
2023-05-01T17:55:19.637Z,99.40
2023-05-01T18:00:23.067Z,90.72
2023-05-01T18:05:25.528Z,94.11
2023-05-01T18:10:31.313Z,95.62
2023-05-01T18:15:33.691Z,95.68
2023-05-01T18:20:36.118Z,93.00
2023-05-01T18:25:39.504Z,97.44
2023-05-01T18:30:41.942Z,95.25
2023-05-01T18:35:44.124Z,93.62
2023-05-01T18:40:47.761Z,91.51
2023-05-01T18:45:49.961Z,91.55
2023-05-01T18:51:07.087Z,94.74
2023-05-01T18:56:09.780Z,100.00
2023-05-01T19:01:12.226Z,100.00
2023-05-01T19:06:14.483Z,100.00
2023-05-01T19:11:18.538Z,100.00
2023-05-01T19:16:20.834Z,100.00
2023-05-01T19:21:23.888Z,100.00
2023-05-01T19:26:26.428Z,100.00
2023-05-01T19:31:28.579Z,100.00
2023-05-01T19:36:30.850Z,100.00
2023-05-01T19:41:33.204Z,100.00
2023-05-01T19:46:35.433Z,100.00
2023-05-01T19:51:38.185Z,100.00
2023-05-01T19:56:40.471Z,100.00
2023-05-01T20:01:42.790Z,100.00
2023-05-01T20:06:45.137Z,100.00
2023-05-01T20:11:48.657Z,96.02
2023-05-01T20:16:52.389Z,95.60
2023-05-01T20:21:54.647Z,92.67
2023-05-01T20:26:58.348Z,94.40
2023-05-01T20:32:00.586Z,90.33
2023-05-01T20:37:03.204Z,93.77
2023-05-01T20:42:05.395Z,93.52
2023-05-01T20:47:07.749Z,95.67
2023-05-01T20:52:10.064Z,95.58
2023-05-01T20:57:12.197Z,95.36
2023-05-01T21:02:16.316Z,91.40
2023-05-01T21:07:18.772Z,84.18
2023-05-01T21:12:21.025Z,92.37
2023-05-01T21:17:23.364Z,90.28
2023-05-01T21:22:26.049Z,93.94
2023-05-01T21:27:28.519Z,93.53
2023-05-01T21:32:40.062Z,88.12
2023-05-01T21:37:43.899Z,89.13
2023-05-01T21:42:46.814Z,88.45
2023-05-01T21:47:51.607Z,91.58
2023-05-01T21:52:53.854Z,87.67
2023-05-01T21:57:58.203Z,91.13
2023-05-01T22:03:05.906Z,92.82
2023-05-01T22:08:08.168Z,98.14
2023-05-01T22:13:11.602Z,97.39
2023-05-01T22:18:17.798Z,100.00
2023-05-01T22:23:20.081Z,88.77
2023-05-01T22:28:22.814Z,92.72
2023-05-01T22:33:25.028Z,91.17
2023-05-01T22:38:27.173Z,86.71
2023-05-01T22:43:29.348Z,90.20
2023-05-01T22:48:32.379Z,87.00
2023-05-01T22:53:34.501Z,89.19
2023-05-01T22:58:37.205Z,93.84
2023-05-01T23:03:39.614Z,92.25
2023-05-01T23:08:41.884Z,87.98
2023-05-01T23:13:49.603Z,90.18
2023-05-01T23:18:52.428Z,89.81
2023-05-01T23:23:54.728Z,86.81
2023-05-01T23:28:57.185Z,85.61
2023-05-01T23:34:02.752Z,91.72
2023-05-01T23:39:05.134Z,92.83
2023-05-01T23:44:08.394Z,93.21
2023-05-01T23:49:10.720Z,98.60
2023-05-01T23:54:12.877Z,89.04
2023-05-01T23:59:15.207Z,89.62
